Air Quality Table

TIMESTAMP NO2 SO2 O3 PM10 PM2.5 CO TEMP HUM AIRPRES WS WD NO BENZENE
2022-12-08 09:00 47.4 µg/m3 0.73 µg/m3 10.7 µg/m3 29.34 µg/m3 19.57 µg/m3 0.45 mg/m3 15.28 °C 85.41 % 1,012.94 mbar 0.66 m/s 238.3 Deg 22.24 µg/m3 3.61 µg/m3
2022-12-08 01:00 54.82 µg/m3 1.1 µg/m3 4.12 µg/m3 105.09 µg/m3 70.08 µg/m3 0.74 mg/m3 16.93 °C 83.65 % 1,011.98 mbar 0.58 m/s 232.67 Deg 46.51 µg/m3 6.3 µg/m3
2022-12-07 17:00 40.64 µg/m3 0.66 µg/m3 30.18 µg/m3 136.02 µg/m3 39.03 µg/m3 0.36 mg/m3 20.06 °C 69.36 % 1,011.33 mbar 1.27 m/s 311.54 Deg 23.76 µg/m3 3.22 µg/m3
2022-12-07 09:00 39.06 µg/m3 0.89 µg/m3 23.51 µg/m3 25.99 µg/m3 16.19 µg/m3 0.41 mg/m3 17.81 °C 77.24 % 1,011.90 mbar 1 m/s 234.35 Deg 34.12 µg/m3 3.4 µg/m3
2022-12-07 01:00 56.9 µg/m3 0.92 µg/m3 17.75 µg/m3 42.23 µg/m3 28.15 µg/m3 0.61 mg/m3 18.28 °C 80.33 % 1,013.42 mbar 0.71 m/s 226.75 Deg 35.96 µg/m3 5.03 µg/m3
2022-12-06 17:00 60.14 µg/m3 1.87 µg/m3 32.73 µg/m3 114.85 µg/m3 38.53 µg/m3 0.74 mg/m3 18.88 °C 77.27 % 1,016.02 mbar 1.16 m/s 183.57 Deg 94.05 µg/m3 10.33 µg/m3
2022-12-06 09:00 54.18 µg/m3 2.78 µg/m3 2.36 µg/m3 38.42 µg/m3 27.11 µg/m3 1.19 mg/m3 13.8 °C 88.91 % 1,018.56 mbar 0.43 m/s 253.73 Deg 150.54 µg/m3 12.32 µg/m3
2022-12-06 01:00 69.75 µg/m3 2.92 µg/m3 2.93 µg/m3 67.85 µg/m3 45.23 µg/m3 1.5 mg/m3 15.6 °C 83.18 % 1,020.74 mbar 0.61 m/s 208.11 Deg 156.05 µg/m3 15.95 µg/m3
2022-12-05 17:00 44.56 µg/m3 1.36 µg/m3 49.73 µg/m3 122.43 µg/m3 30.1 µg/m3 0.51 mg/m3 19.08 °C 66.89 % 1,021.41 mbar 1.54 m/s 127.16 Deg 59.59 µg/m3 6.06 µg/m3
2022-12-05 09:00 54.75 µg/m3 2.18 µg/m3 5.74 µg/m3 40.97 µg/m3 25.78 µg/m3 0.95 mg/m3 13.77 °C 82.98 % 1,020.92 mbar 0.4 m/s 235.64 Deg 111.36 µg/m3 9.83 µg/m3
2022-12-05 01:00 63.77 µg/m3 1.68 µg/m3 4.97 µg/m3 52.63 µg/m3 34.93 µg/m3 1.12 mg/m3 15.89 °C 79.08 % 1,019.60 mbar 0.44 m/s 245.89 Deg 79.88 µg/m3 12.23 µg/m3
2022-12-04 17:00 21.81 µg/m3 0.58 µg/m3 57.82 µg/m3 75.09 µg/m3 23.07 µg/m3 0.37 mg/m3 19.72 °C 64.21 % 1,016.96 mbar 1.85 m/s 213.22 Deg 8.52 µg/m3 3.72 µg/m3
2022-12-04 09:00 47.31 µg/m3 1.09 µg/m3 3.1 µg/m3 34.82 µg/m3 22.45 µg/m3 0.64 mg/m3 14.75 °C 80.22 % 1,014.70 mbar 0.64 m/s 238.58 Deg 40.05 µg/m3 6.6 µg/m3
2022-12-04 01:00 21.52 µg/m3 0.38 µg/m3 55.27 µg/m3 56.51 µg/m3 30.43 µg/m3 0.31 mg/m3 19.15 °C 72.41 % 1,012.64 mbar 1.69 m/s 200.74 Deg 4.03 µg/m3 1.72 µg/m3
2022-12-03 17:00 21.92 µg/m3 0.49 µg/m3 59.66 µg/m3 63.22 µg/m3 24.7 µg/m3 0.32 mg/m3 20.61 °C 72.1 % 1,011.30 mbar 3.52 m/s 123.92 Deg 12.19 µg/m3 3.31 µg/m3
2022-12-03 09:00 20 µg/m3 0.51 µg/m3 61.98 µg/m3 39.62 µg/m3 16.81 µg/m3 0.23 mg/m3 18.56 °C 70.13 % 1,013.52 mbar 2.28 m/s 154.82 Deg 7.14 µg/m3 1.13 µg/m3
2022-12-03 01:00 65.04 µg/m3 1.21 µg/m3 23.31 µg/m3 28.7 µg/m3 13.78 µg/m3 0.64 mg/m3 16.98 °C 75.2 % 1,015.68 mbar 1.02 m/s 138.62 Deg 52.07 µg/m3 6.99 µg/m3
2022-12-02 17:00 53.76 µg/m3 1.18 µg/m3 33.2 µg/m3 41.91 µg/m3 12.9 µg/m3 0.52 mg/m3 17.31 °C 73.61 % 1,017.05 mbar 1.97 m/s 146.39 Deg 43.35 µg/m3 5.22 µg/m3
2022-12-02 09:00 55.84 µg/m3 2.64 µg/m3 2.82 µg/m3 34 µg/m3 22.73 µg/m3 1.1 mg/m3 12.46 °C 84.38 % 1,017.76 mbar 0.55 m/s 240.55 Deg 137.24 µg/m3 11.23 µg/m3
2022-12-02 01:00 67.9 µg/m3 2.4 µg/m3 3.74 µg/m3 59.08 µg/m3 34.42 µg/m3 1.26 mg/m3 13.8 °C 78.74 % 1,017.02 mbar 0.72 m/s 237.34 Deg 115.57 µg/m3 14.41 µg/m3

It is to be noted that the data is provisional and subject to quality assurance procedures. For validated data kindly refer your request to contact.air@era.org.mt